createdAt,value
2022-10-26T00:01:13.996Z,3.08
2022-10-26T00:03:42.670Z,3.35
2022-10-26T00:06:15.445Z,2.35
2022-10-26T00:08:44.884Z,2.70
2022-10-26T00:11:12.328Z,2.45
2022-10-26T00:13:42.168Z,2.60
2022-10-26T00:16:11.957Z,2.00
2022-10-26T00:18:41.608Z,1.92
2022-10-26T00:21:10.335Z,2.38
2022-10-26T00:23:37.388Z,1.80
2022-10-26T00:26:05.084Z,2.00
2022-10-26T00:28:34.186Z,2.38
2022-10-26T00:31:06.224Z,2.38
2022-10-26T00:35:59.641Z,2.60
2022-10-26T00:38:28.769Z,2.17
2022-10-26T00:43:27.524Z,2.20
2022-10-26T00:45:57.427Z,1.77
2022-10-26T00:48:33.375Z,2.03
2022-10-26T00:51:05.919Z,2.10
2022-10-26T00:53:33.075Z,1.92
2022-10-26T00:56:00.986Z,2.13
2022-10-26T00:58:28.405Z,2.30
2022-10-26T01:00:55.610Z,1.80
2022-10-26T01:03:25.238Z,2.35
2022-10-26T01:05:57.522Z,2.17
2022-10-26T01:08:25.426Z,2.20
2022-10-26T01:10:56.370Z,1.80
2022-10-26T01:13:24.374Z,1.70
2022-10-26T01:16:24.831Z,2.13
2022-10-26T01:19:02.814Z,2.08
2022-10-26T01:22:03.078Z,1.90
2022-10-26T01:25:03.797Z,1.95
2022-10-26T01:27:41.528Z,1.63
2022-10-26T01:30:30.245Z,2.20
2022-10-26T01:33:28.654Z,1.90
2022-10-26T01:36:26.799Z,2.08
2022-10-26T01:39:08.859Z,2.38
2022-10-26T01:41:52.896Z,2.30
2022-10-26T01:44:25.752Z,1.83
2022-10-26T01:46:56.982Z,1.63
2022-10-26T01:49:28.054Z,1.75
2022-10-26T01:51:54.775Z,1.90
2022-10-26T01:54:21.420Z,2.13
2022-10-26T01:56:52.045Z,1.80
2022-10-26T01:59:37.364Z,2.25
2022-10-26T02:02:29.144Z,2.70
2022-10-26T02:05:14.367Z,2.90
2022-10-26T02:08:19.611Z,2.30
2022-10-26T02:11:04.952Z,2.42
2022-10-26T02:13:45.361Z,2.10
2022-10-26T02:16:25.659Z,1.80
2022-10-26T02:19:22.996Z,2.30
2022-10-26T02:21:59.255Z,2.20
2022-10-26T02:24:27.792Z,2.33
2022-10-26T02:26:57.226Z,2.00
2022-10-26T02:29:27.705Z,2.00
2022-10-26T02:31:55.838Z,2.25
2022-10-26T02:34:27.653Z,2.65
2022-10-26T02:37:00.094Z,2.50
2022-10-26T02:39:32.432Z,2.10
2022-10-26T02:42:07.147Z,3.33
2022-10-26T02:44:41.667Z,3.00
2022-10-26T02:47:08.980Z,2.80
2022-10-26T02:49:38.335Z,2.30
2022-10-26T02:52:28.171Z,3.22
2022-10-26T02:55:07.070Z,3.05
2022-10-26T02:57:44.577Z,3.28
2022-10-26T03:00:17.012Z,3.65
2022-10-26T03:02:52.163Z,2.30
2022-10-26T03:05:26.449Z,1.73
2022-10-26T03:07:53.525Z,2.90
2022-10-26T03:10:21.003Z,3.95
2022-10-26T03:12:50.318Z,3.83
2022-10-26T03:15:19.953Z,5.13
2022-10-26T03:17:47.022Z,4.00
2022-10-26T03:20:13.965Z,3.22
2022-10-26T03:22:40.622Z,2.17
2022-10-26T03:25:10.174Z,2.63
2022-10-26T03:27:37.897Z,2.13
2022-10-26T03:30:08.077Z,2.10
2022-10-26T03:32:38.107Z,2.85
2022-10-26T03:35:05.159Z,2.33
2022-10-26T03:37:34.029Z,2.65
2022-10-26T03:40:00.735Z,3.20
2022-10-26T03:42:27.979Z,2.15
2022-10-26T03:44:54.644Z,1.73
2022-10-26T03:47:23.859Z,1.65
2022-10-26T03:49:55.206Z,2.10
2022-10-26T03:52:24.112Z,1.98
2022-10-26T03:54:51.679Z,1.90
2022-10-26T03:57:21.195Z,2.75
2022-10-26T03:59:47.852Z,2.15
2022-10-26T04:02:15.202Z,2.75
2022-10-26T04:04:44.133Z,2.08
2022-10-26T04:07:11.153Z,2.80
2022-10-26T04:09:40.029Z,2.85
2022-10-26T04:12:07.013Z,3.17
2022-10-26T04:14:33.692Z,2.05
2022-10-26T04:17:00.399Z,1.98
2022-10-26T04:19:27.620Z,2.60
2022-10-26T04:21:54.338Z,2.63
2022-10-26T04:24:21.030Z,2.75
2022-10-26T04:26:50.188Z,2.33
2022-10-26T04:29:16.830Z,3.03
2022-10-26T04:34:17.756Z,2.42
2022-10-26T04:36:44.417Z,4.40
2022-10-26T04:39:15.847Z,4.30
2022-10-26T04:41:44.763Z,3.40
2022-10-26T04:44:13.950Z,2.35
2022-10-26T04:46:40.646Z,2.17
2022-10-26T04:49:07.324Z,2.85
2022-10-26T04:51:33.989Z,2.30
2022-10-26T04:54:00.659Z,2.72
2022-10-26T04:56:29.791Z,2.63
2022-10-26T04:59:01.218Z,3.15
2022-10-26T05:01:28.102Z,2.67
2022-10-26T05:03:57.239Z,2.53
2022-10-26T05:06:26.221Z,2.97
2022-10-26T05:08:57.576Z,2.78
2022-10-26T05:11:24.264Z,2.08
2022-10-26T05:13:53.406Z,2.30
2022-10-26T05:16:22.302Z,2.08
2022-10-26T05:18:52.142Z,2.35
2022-10-26T05:21:21.563Z,3.50
2022-10-26T05:23:55.405Z,3.72
2022-10-26T05:26:25.208Z,3.20
2022-10-26T05:28:52.761Z,3.20
2022-10-26T05:31:20.341Z,2.90
2022-10-26T05:33:51.279Z,1.83
2022-10-26T05:36:18.869Z,2.30
2022-10-26T05:38:45.852Z,2.30
2022-10-26T05:41:15.491Z,1.98
2022-10-26T05:43:42.187Z,2.20
2022-10-26T05:46:08.904Z,2.22
2022-10-26T05:48:37.696Z,2.05
2022-10-26T05:51:10.673Z,2.00
2022-10-26T05:53:39.576Z,1.80
2022-10-26T05:56:36.149Z,2.00
2022-10-26T05:59:03.604Z,2.22
2022-10-26T06:01:54.460Z,2.00
2022-10-26T06:04:31.641Z,2.10
2022-10-26T06:07:01.811Z,1.75
2022-10-26T06:09:28.839Z,2.30
2022-10-26T06:11:55.901Z,2.03
2022-10-26T06:14:22.929Z,1.85
2022-10-26T06:17:07.948Z,2.03
2022-10-26T06:19:49.814Z,1.98
2022-10-26T06:22:34.270Z,2.78
2022-10-26T06:25:41.046Z,3.80
2022-10-26T06:28:33.768Z,1.88
2022-10-26T06:31:02.929Z,1.55
2022-10-26T06:33:30.677Z,1.63
2022-10-26T06:36:04.935Z,1.35
2022-10-26T06:38:35.141Z,1.77
2022-10-26T06:41:04.757Z,2.13
2022-10-26T06:43:35.774Z,1.30
2022-10-26T06:46:13.448Z,1.55
2022-10-26T06:49:05.566Z,1.38
2022-10-26T06:51:39.984Z,1.65
2022-10-26T06:54:33.441Z,1.95
2022-10-26T06:57:00.986Z,2.60
2022-10-26T06:59:32.070Z,2.17
2022-10-26T07:02:01.653Z,2.77
2022-10-26T07:04:31.108Z,1.88
2022-10-26T07:06:58.054Z,3.20
2022-10-26T07:09:29.198Z,4.60
2022-10-26T07:11:55.912Z,4.30
2022-10-26T07:14:24.899Z,4.32
2022-10-26T07:16:51.626Z,12.55
2022-10-26T07:19:18.353Z,7.13
2022-10-26T07:21:45.004Z,5.85
2022-10-26T07:24:13.915Z,5.45
2022-10-26T07:26:40.627Z,4.50
2022-10-26T07:29:07.307Z,4.93
2022-10-26T07:31:34.048Z,5.03
2022-10-26T07:34:03.122Z,5.50
2022-10-26T07:36:36.631Z,3.03
2022-10-26T07:39:06.535Z,3.35
2022-10-26T07:41:33.279Z,5.20
2022-10-26T07:44:02.647Z,9.23
2022-10-26T07:46:31.713Z,10.38
2022-10-26T07:48:58.456Z,8.45
2022-10-26T07:51:25.747Z,7.15
2022-10-26T07:53:54.883Z,3.88
2022-10-26T07:56:24.061Z,3.10
2022-10-26T07:58:58.097Z,2.63
2022-10-26T08:01:29.823Z,2.15
2022-10-26T08:03:56.750Z,3.45
2022-10-26T08:06:28.695Z,3.50
2022-10-26T08:11:26.638Z,2.10
2022-10-26T08:13:56.510Z,2.63
2022-10-26T08:16:23.816Z,2.92
2022-10-26T08:18:53.877Z,2.25
2022-10-26T08:21:36.103Z,2.42
2022-10-26T08:24:06.491Z,2.00
2022-10-26T08:26:33.319Z,2.15
2022-10-26T08:29:04.640Z,1.35
2022-10-26T08:31:31.294Z,1.60
2022-10-26T08:33:58.013Z,2.17
2022-10-26T08:36:27.054Z,1.75
2022-10-26T08:38:53.883Z,1.98
2022-10-26T08:41:31.295Z,3.22
2022-10-26T08:44:11.029Z,4.70
2022-10-26T08:46:48.388Z,4.22
2022-10-26T08:49:41.201Z,5.13
2022-10-26T08:52:15.433Z,5.43
2022-10-26T08:54:55.457Z,7.30
2022-10-26T08:57:32.075Z,4.43
2022-10-26T09:00:04.124Z,6.18
2022-10-26T09:02:30.952Z,2.80
2022-10-26T09:04:59.498Z,3.60
2022-10-26T09:07:48.016Z,3.10
2022-10-26T09:10:47.425Z,3.22
2022-10-26T09:13:23.856Z,3.60
2022-10-26T09:16:11.712Z,3.03
2022-10-26T09:19:08.750Z,3.90
2022-10-26T09:21:59.156Z,3.80
2022-10-26T09:24:31.416Z,4.03
2022-10-26T09:29:42.477Z,1.30
2022-10-26T09:32:36.135Z,1.40
2022-10-26T09:35:09.801Z,1.50
2022-10-26T09:37:47.125Z,1.58
2022-10-26T09:40:29.444Z,1.80
2022-10-26T09:45:39.205Z,3.28
2022-10-26T09:48:20.532Z,1.88
2022-10-26T09:50:49.792Z,1.63
2022-10-26T09:53:16.629Z,2.38
2022-10-26T09:55:49.128Z,2.67
2022-10-26T09:58:29.807Z,2.90
2022-10-26T10:00:59.730Z,1.80
2022-10-26T10:03:29.316Z,1.83
2022-10-26T10:06:19.936Z,1.60
2022-10-26T10:09:11.028Z,1.30
2022-10-26T10:11:47.486Z,1.52
2022-10-26T10:14:22.640Z,1.63
2022-10-26T10:17:02.330Z,1.60
2022-10-26T10:19:31.184Z,1.70
2022-10-26T10:22:08.681Z,1.50
2022-10-26T10:24:41.515Z,1.75
2022-10-26T10:27:16.225Z,1.60
2022-10-26T10:29:47.011Z,2.17
2022-10-26T10:32:20.801Z,1.85
2022-10-26T10:34:55.892Z,1.60
2022-10-26T10:37:44.229Z,2.25
2022-10-26T10:40:25.077Z,1.80
2022-10-26T10:42:57.367Z,1.80
2022-10-26T10:45:26.779Z,1.95
2022-10-26T10:48:16.565Z,1.70
2022-10-26T10:51:02.925Z,2.03
2022-10-26T10:53:43.481Z,1.90
2022-10-26T10:56:33.818Z,1.83
2022-10-26T10:59:09.185Z,2.00
2022-10-26T11:01:47.778Z,1.70
2022-10-26T11:06:48.532Z,2.05
2022-10-26T11:09:25.776Z,1.60
2022-10-26T11:15:18.100Z,1.92
2022-10-26T11:18:09.603Z,1.80
2022-10-26T11:20:42.595Z,1.83
2022-10-26T11:23:20.832Z,1.40
2022-10-26T11:25:51.627Z,1.88
2022-10-26T11:28:48.792Z,2.45
2022-10-26T11:31:27.288Z,1.60
2022-10-26T11:34:16.692Z,2.97
2022-10-26T11:36:49.173Z,1.80
2022-10-26T11:39:42.515Z,1.50
2022-10-26T11:42:36.232Z,1.80
2022-10-26T11:45:26.207Z,2.53
2022-10-26T11:48:06.950Z,1.58
2022-10-26T11:50:36.591Z,1.88
2022-10-26T11:53:37.579Z,1.30
2022-10-26T11:56:10.392Z,1.38
2022-10-26T11:58:40.678Z,1.77
2022-10-26T12:01:15.559Z,1.92
2022-10-26T12:03:47.561Z,1.98
2022-10-26T12:08:53.986Z,1.80
2022-10-26T12:11:43.999Z,2.03
2022-10-26T12:14:20.783Z,1.90
2022-10-26T12:17:08.396Z,1.60
2022-10-26T12:19:42.223Z,1.65
2022-10-26T12:22:16.048Z,1.60
2022-10-26T12:24:53.756Z,1.60
2022-10-26T12:30:25.175Z,1.55
2022-10-26T12:33:23.336Z,1.50
2022-10-26T12:35:50.173Z,1.42
2022-10-26T12:38:40.224Z,1.40
2022-10-26T12:41:07.440Z,1.60
2022-10-26T12:43:41.357Z,1.92
2022-10-26T12:46:13.933Z,1.70
2022-10-26T12:48:41.677Z,1.80
2022-10-26T12:51:24.623Z,1.73
2022-10-26T12:54:16.024Z,2.00
2022-10-26T12:56:56.016Z,1.57
2022-10-26T12:59:30.446Z,1.73
2022-10-26T13:02:10.121Z,2.03
2022-10-26T13:04:57.991Z,1.95
2022-10-26T13:07:26.851Z,1.60
2022-10-26T13:10:24.489Z,1.20
2022-10-26T13:12:56.599Z,1.40
2022-10-26T13:15:31.050Z,2.00
2022-10-26T13:18:02.721Z,1.58
2022-10-26T13:20:34.798Z,1.55
2022-10-26T13:23:14.886Z,1.70
2022-10-26T13:25:41.744Z,1.60
2022-10-26T13:28:32.081Z,1.52
2022-10-26T13:31:03.360Z,1.67
2022-10-26T13:33:41.649Z,1.80
2022-10-26T13:36:47.256Z,1.45
2022-10-26T13:39:20.245Z,1.40
2022-10-26T13:41:51.151Z,1.50
2022-10-26T13:44:33.121Z,1.73
2022-10-26T13:47:11.479Z,1.50
2022-10-26T13:49:44.206Z,1.80
2022-10-26T13:52:21.251Z,1.63
2022-10-26T13:54:56.970Z,1.50
2022-10-26T13:57:40.141Z,1.33
2022-10-26T14:00:19.509Z,1.67
2022-10-26T14:02:46.413Z,1.33
2022-10-26T14:05:16.931Z,1.95
2022-10-26T14:07:54.073Z,1.50
2022-10-26T14:10:27.102Z,1.77
2022-10-26T14:12:54.322Z,1.48
2022-10-26T14:15:33.070Z,1.58
2022-10-26T14:18:05.067Z,1.88
2022-10-26T14:20:36.434Z,1.67
2022-10-26T14:23:05.597Z,1.63
2022-10-26T14:25:42.547Z,1.58
2022-10-26T14:28:27.436Z,1.77
2022-10-26T14:30:54.545Z,1.80
2022-10-26T14:33:28.577Z,2.80
2022-10-26T14:35:56.300Z,5.25
2022-10-26T14:38:30.037Z,5.10
2022-10-26T14:40:58.157Z,3.67
2022-10-26T14:43:26.804Z,3.22
2022-10-26T14:45:57.399Z,2.13
2022-10-26T14:48:30.515Z,1.85
2022-10-26T14:51:08.957Z,2.78
2022-10-26T14:53:40.601Z,2.33
2022-10-26T14:56:23.400Z,2.05
2022-10-26T14:58:51.451Z,2.15
2022-10-26T15:01:30.338Z,2.38
2022-10-26T15:04:26.371Z,3.53
2022-10-26T15:06:53.071Z,2.45
2022-10-26T15:09:54.446Z,2.70
2022-10-26T15:12:33.610Z,1.80
2022-10-26T15:15:17.583Z,2.30
2022-10-26T15:17:54.164Z,2.35
2022-10-26T15:20:26.212Z,2.10
2022-10-26T15:23:03.142Z,2.28
2022-10-26T15:25:34.748Z,2.55
2022-10-26T15:28:32.564Z,3.45
2022-10-26T15:31:07.714Z,3.17
2022-10-26T15:33:34.957Z,3.00
2022-10-26T15:36:29.570Z,3.40
2022-10-26T15:38:59.612Z,3.60
2022-10-26T15:41:40.228Z,4.43
2022-10-26T15:44:15.970Z,4.75
2022-10-26T15:46:47.650Z,3.90
2022-10-26T15:49:21.985Z,3.30
2022-10-26T15:51:49.380Z,2.50
2022-10-26T15:54:16.470Z,2.22
2022-10-26T15:56:47.721Z,2.95
2022-10-26T15:59:17.590Z,2.42
2022-10-26T16:01:52.038Z,1.92
2022-10-26T16:04:18.862Z,2.85
2022-10-26T16:06:47.966Z,2.60
2022-10-26T16:09:18.524Z,2.92
2022-10-26T16:11:45.605Z,2.70
2022-10-26T16:14:12.946Z,3.05
2022-10-26T16:16:39.903Z,2.63
2022-10-26T16:19:30.891Z,2.60
2022-10-26T16:21:57.191Z,2.60
2022-10-26T16:24:26.396Z,2.75
2022-10-26T16:26:55.466Z,2.40
2022-10-26T16:29:22.486Z,2.45
2022-10-26T16:31:52.406Z,2.95
2022-10-26T16:34:19.103Z,3.60
2022-10-26T16:36:48.191Z,3.55
2022-10-26T16:39:17.222Z,3.50
2022-10-26T16:41:46.074Z,4.13
2022-10-26T16:44:13.550Z,2.95
2022-10-26T16:46:42.727Z,2.95
2022-10-26T16:49:09.556Z,3.88
2022-10-26T16:51:38.673Z,2.92
2022-10-26T16:54:10.510Z,3.63
2022-10-26T16:56:39.530Z,2.80
2022-10-26T16:59:09.660Z,2.42
2022-10-26T17:01:38.826Z,3.08
2022-10-26T17:04:05.662Z,3.08
2022-10-26T17:06:37.045Z,3.15
2022-10-26T17:09:06.041Z,3.72
2022-10-26T17:11:35.277Z,3.45
2022-10-26T17:14:04.324Z,4.55
2022-10-26T17:16:34.972Z,8.05
2022-10-26T17:19:03.821Z,6.20
2022-10-26T17:21:35.222Z,3.97
2022-10-26T17:24:03.462Z,3.25
2022-10-26T17:26:32.883Z,4.03
2022-10-26T17:29:04.087Z,4.28
2022-10-26T17:31:33.501Z,7.22
2022-10-26T17:34:02.633Z,6.35
2022-10-26T17:36:29.433Z,4.80
2022-10-26T17:39:01.046Z,6.68
2022-10-26T17:41:32.561Z,5.75
2022-10-26T17:43:59.298Z,8.65
2022-10-26T17:46:28.379Z,10.73
2022-10-26T17:48:59.815Z,10.45
2022-10-26T17:51:28.336Z,8.52
2022-10-26T17:53:58.971Z,7.35
2022-10-26T17:56:31.297Z,4.97
2022-10-26T17:59:02.299Z,4.13
2022-10-26T18:01:32.875Z,3.63
2022-10-26T18:04:00.374Z,3.40
2022-10-26T18:06:27.200Z,3.60
2022-10-26T18:08:55.871Z,2.97
2022-10-26T18:11:26.949Z,3.53
2022-10-26T18:13:57.724Z,3.63
2022-10-26T18:16:31.109Z,3.90
2022-10-26T18:19:02.321Z,2.92
2022-10-26T18:21:37.166Z,4.70
2022-10-26T18:24:05.290Z,4.10
2022-10-26T18:26:32.521Z,4.32
2022-10-26T18:29:05.928Z,4.10
2022-10-26T18:31:38.527Z,2.58
2022-10-26T18:34:07.768Z,4.60
2022-10-26T18:36:34.674Z,4.78
2022-10-26T18:39:01.596Z,3.88
2022-10-26T18:41:29.110Z,5.00
2022-10-26T18:43:59.956Z,4.88
2022-10-26T18:46:39.374Z,5.07
2022-10-26T18:49:06.349Z,3.28
2022-10-26T18:51:36.291Z,3.80
2022-10-26T18:54:08.123Z,3.58
2022-10-26T18:56:34.889Z,3.13
2022-10-26T18:59:01.939Z,2.53
2022-10-26T19:01:33.321Z,5.38
2022-10-26T19:04:04.972Z,5.05
2022-10-26T19:06:36.810Z,4.72
2022-10-26T19:09:07.189Z,7.10
2022-10-26T19:11:34.691Z,6.50
2022-10-26T19:14:09.167Z,5.20
2022-10-26T19:16:48.394Z,5.10
2022-10-26T19:19:19.459Z,3.67
2022-10-26T19:21:48.326Z,4.05
2022-10-26T19:24:21.959Z,3.80
2022-10-26T19:26:54.322Z,3.40
2022-10-26T19:29:21.699Z,3.60
2022-10-26T19:31:53.068Z,2.90
2022-10-26T19:34:22.333Z,4.13
2022-10-26T19:36:49.380Z,5.03
2022-10-26T19:39:24.520Z,4.82
2022-10-26T19:41:56.521Z,3.88
2022-10-26T19:46:53.019Z,4.25
2022-10-26T19:49:22.706Z,3.97
2022-10-26T19:51:49.379Z,4.07
2022-10-26T19:54:18.536Z,3.30
2022-10-26T19:56:45.987Z,4.50
2022-10-26T19:59:20.499Z,5.07
2022-10-26T20:01:49.708Z,4.82
2022-10-26T20:04:21.160Z,5.72
2022-10-26T20:06:50.768Z,6.43
2022-10-26T20:09:18.446Z,6.40
2022-10-26T20:11:46.519Z,5.10
2022-10-26T20:14:14.892Z,6.47
2022-10-26T20:16:41.721Z,5.50
2022-10-26T20:19:08.500Z,5.03
2022-10-26T20:21:35.345Z,4.97
2022-10-26T20:24:04.648Z,4.30
2022-10-26T20:26:33.849Z,4.25
2022-10-26T20:29:00.609Z,4.60
2022-10-26T20:31:30.399Z,3.75
2022-10-26T20:33:59.533Z,5.57
2022-10-26T20:36:28.763Z,5.13
2022-10-26T20:38:55.771Z,5.22
2022-10-26T20:41:25.389Z,4.50
2022-10-26T20:43:57.985Z,4.22
2022-10-26T20:46:29.163Z,4.50
2022-10-26T20:48:56.231Z,4.00
2022-10-26T20:51:47.552Z,5.32
2022-10-26T20:54:28.693Z,4.72
2022-10-26T20:56:59.984Z,6.35
2022-10-26T20:59:35.960Z,5.38
2022-10-26T21:02:07.884Z,5.78
2022-10-26T21:07:01.207Z,5.43
2022-10-26T21:09:29.726Z,6.20
2022-10-26T21:12:00.538Z,6.10
2022-10-26T21:14:30.065Z,4.78
2022-10-26T21:17:01.344Z,5.05
2022-10-26T21:19:30.498Z,4.28
2022-10-26T21:21:57.186Z,4.18
2022-10-26T21:24:23.929Z,3.25
2022-10-26T21:26:51.261Z,4.38
2022-10-26T21:29:18.700Z,5.13
2022-10-26T21:31:47.529Z,5.50
2022-10-26T21:34:18.845Z,5.43
2022-10-26T21:36:47.801Z,5.85
2022-10-26T21:39:14.623Z,6.10
2022-10-26T21:41:43.147Z,5.60
2022-10-26T21:44:23.214Z,4.82
2022-10-26T21:46:56.872Z,5.20
2022-10-26T21:49:25.692Z,5.28
2022-10-26T21:51:57.256Z,5.30
2022-10-26T21:54:26.091Z,4.35
2022-10-26T21:56:55.081Z,5.72
2022-10-26T21:59:21.888Z,6.50
2022-10-26T22:01:51.195Z,5.43
2022-10-26T22:07:25.907Z,7.07
2022-10-26T22:10:10.334Z,7.63
2022-10-26T22:12:39.816Z,4.95
2022-10-26T22:15:07.126Z,4.65
2022-10-26T22:17:38.560Z,5.80
2022-10-26T22:20:10.938Z,4.53
2022-10-26T22:22:40.719Z,5.32
2022-10-26T22:25:07.738Z,6.65
2022-10-26T22:27:39.139Z,6.97
2022-10-26T22:30:06.495Z,6.93
2022-10-26T22:32:33.175Z,8.05
2022-10-26T22:35:10.771Z,6.75
2022-10-26T22:37:46.616Z,6.68
2022-10-26T22:40:13.452Z,5.68
2022-10-26T22:42:40.148Z,4.45
2022-10-26T22:45:11.902Z,5.05
2022-10-26T22:47:43.423Z,6.15
2022-10-26T22:50:13.309Z,6.72
2022-10-26T22:52:42.160Z,5.00
2022-10-26T22:55:13.700Z,4.60
2022-10-26T22:57:40.380Z,5.03
2022-10-26T23:00:10.042Z,6.43
2022-10-26T23:02:36.691Z,4.95
2022-10-26T23:05:05.752Z,4.30
2022-10-26T23:07:34.813Z,5.97
2022-10-26T23:10:04.508Z,4.82
2022-10-26T23:12:31.200Z,4.10
2022-10-26T23:15:00.055Z,4.25
2022-10-26T23:17:26.737Z,4.57
2022-10-26T23:19:55.881Z,5.25
2022-10-26T23:22:22.569Z,4.80
2022-10-26T23:24:49.261Z,4.80
2022-10-26T23:27:15.913Z,3.88
2022-10-26T23:29:49.744Z,5.95
2022-10-26T23:32:18.538Z,6.28
2022-10-26T23:34:45.216Z,6.45
2022-10-26T23:37:14.915Z,5.97
2022-10-26T23:39:46.331Z,5.18
2022-10-26T23:42:15.208Z,5.50
2022-10-26T23:44:44.133Z,5.97
2022-10-26T23:47:10.808Z,5.63
2022-10-26T23:49:37.466Z,5.60
2022-10-26T23:52:04.197Z,4.50
2022-10-26T23:54:33.040Z,5.60
2022-10-26T23:57:01.831Z,5.13
2022-10-26T23:59:30.640Z,6.72
